createdAt,value
2018-07-20T00:01:07.154Z,99.90
2018-07-20T00:03:35.103Z,99.90
2018-07-20T00:06:03.135Z,99.90
2018-07-20T00:08:31.244Z,99.90
2018-07-20T00:10:59.102Z,99.90
2018-07-20T00:13:26.985Z,99.90
2018-07-20T00:15:54.814Z,99.90
2018-07-20T00:18:22.747Z,99.90
2018-07-20T00:20:50.555Z,99.90
2018-07-20T00:23:18.527Z,99.90
2018-07-20T00:25:46.330Z,99.90
2018-07-20T00:28:14.192Z,99.90
2018-07-20T00:30:42.060Z,99.90
2018-07-20T00:33:09.991Z,99.90
2018-07-20T00:35:37.804Z,99.90
2018-07-20T00:38:05.742Z,99.90
2018-07-20T00:40:33.622Z,99.90
2018-07-20T00:43:02.000Z,99.90
2018-07-20T00:45:29.876Z,99.90
2018-07-20T00:47:57.803Z,99.90
2018-07-20T00:50:25.632Z,99.90
2018-07-20T00:52:53.464Z,99.90
2018-07-20T00:55:21.488Z,99.90
2018-07-20T00:57:49.446Z,99.90
2018-07-20T01:00:23.768Z,99.90
2018-07-20T01:02:51.592Z,99.90
2018-07-20T01:05:19.388Z,99.90
2018-07-20T01:07:47.192Z,99.90
2018-07-20T01:10:14.999Z,99.90
2018-07-20T01:12:42.816Z,99.90
2018-07-20T01:15:10.807Z,99.90
2018-07-20T01:17:38.713Z,99.90
2018-07-20T01:20:07.280Z,99.90
2018-07-20T01:22:35.010Z,99.90
2018-07-20T01:25:02.990Z,99.90
2018-07-20T01:27:30.898Z,99.90
2018-07-20T01:29:58.768Z,99.90
2018-07-20T01:32:26.670Z,99.90
2018-07-20T01:34:54.622Z,99.90
2018-07-20T01:37:22.412Z,99.90
2018-07-20T01:39:50.268Z,99.90
2018-07-20T01:42:18.080Z,99.90
2018-07-20T01:44:45.810Z,99.90
2018-07-20T01:47:13.644Z,99.90
2018-07-20T01:49:41.514Z,99.90
2018-07-20T01:54:37.074Z,99.90
2018-07-20T01:57:04.972Z,99.90
2018-07-20T01:59:32.866Z,99.90
2018-07-20T02:04:28.226Z,99.90
2018-07-20T02:06:56.781Z,99.90
2018-07-20T02:09:24.614Z,99.90
2018-07-20T02:11:52.465Z,99.90
2018-07-20T02:14:20.392Z,99.90
2018-07-20T02:19:15.898Z,99.90
2018-07-20T02:21:43.716Z,99.90
2018-07-20T02:24:11.634Z,99.90
2018-07-20T02:26:39.440Z,99.90
2018-07-20T02:29:07.188Z,99.90
2018-07-20T02:31:34.951Z,99.90
2018-07-20T02:34:02.892Z,99.90
2018-07-20T02:36:30.790Z,99.90
2018-07-20T02:38:58.806Z,99.90
2018-07-20T02:41:26.621Z,99.90
2018-07-20T02:43:54.481Z,99.90
2018-07-20T02:46:23.133Z,99.90
2018-07-20T02:48:50.966Z,99.90
2018-07-20T02:51:19.668Z,99.90
2018-07-20T02:53:47.504Z,99.90
2018-07-20T02:56:15.253Z,99.90
2018-07-20T02:58:43.031Z,99.90
2018-07-20T03:01:10.880Z,99.90
2018-07-20T03:03:38.681Z,99.90
2018-07-20T03:06:06.650Z,99.90
2018-07-20T03:13:29.594Z,99.90
2018-07-20T03:15:57.755Z,99.90
2018-07-20T03:18:25.642Z,99.90
2018-07-20T03:20:53.532Z,99.90
2018-07-20T03:23:21.322Z,99.90
2018-07-20T03:25:49.156Z,99.90
2018-07-20T03:28:17.002Z,99.90
2018-07-20T03:30:44.825Z,99.90
2018-07-20T03:38:08.417Z,99.90
2018-07-20T03:40:36.528Z,99.90
2018-07-20T03:43:04.463Z,99.90
2018-07-20T03:45:32.300Z,99.90
2018-07-20T03:48:00.112Z,99.90
2018-07-20T03:50:27.944Z,99.90
2018-07-20T03:52:55.754Z,99.90
2018-07-20T03:55:23.536Z,99.90
2018-07-20T03:57:51.335Z,99.90
2018-07-20T04:00:19.291Z,99.90
2018-07-20T04:02:47.241Z,99.90
2018-07-20T04:05:15.082Z,99.90
2018-07-20T04:07:42.902Z,99.90
2018-07-20T04:10:10.812Z,99.90
2018-07-20T04:12:38.791Z,99.90
2018-07-20T04:15:06.672Z,99.90
2018-07-20T04:17:45.567Z,99.90
2018-07-20T04:20:15.061Z,99.90
2018-07-20T04:22:42.920Z,99.90
2018-07-20T04:25:10.789Z,99.90
2018-07-20T04:27:38.642Z,99.90
2018-07-20T04:30:08.634Z,99.90
2018-07-20T04:32:36.472Z,99.90
2018-07-20T04:37:32.004Z,99.90
2018-07-20T04:39:59.960Z,99.90
2018-07-20T04:42:28.050Z,99.90
2018-07-20T04:44:56.207Z,99.90
2018-07-20T04:47:23.998Z,99.90
2018-07-20T04:49:51.935Z,99.90
2018-07-20T04:52:19.959Z,99.90
2018-07-20T04:54:47.780Z,99.90
2018-07-20T04:57:15.828Z,99.90
2018-07-20T04:59:44.054Z,99.90
2018-07-20T05:02:12.169Z,99.90
2018-07-20T05:04:40.088Z,99.90
2018-07-20T05:07:08.494Z,99.90
2018-07-20T05:09:36.553Z,99.90
2018-07-20T05:12:05.694Z,99.90
2018-07-20T05:14:33.591Z,99.90
2018-07-20T05:17:01.722Z,99.90
2018-07-20T05:19:30.088Z,99.90
2018-07-20T05:21:58.030Z,99.90
2018-07-20T05:24:25.932Z,99.90
2018-07-20T05:26:54.132Z,99.90
2018-07-20T05:29:22.179Z,99.90
2018-07-20T05:31:50.307Z,99.90
2018-07-20T05:34:18.264Z,99.90
2018-07-20T05:36:46.530Z,99.90
2018-07-20T05:39:14.419Z,99.90
2018-07-20T05:41:42.529Z,99.90
2018-07-20T05:44:10.508Z,99.90
2018-07-20T05:46:38.504Z,99.90
2018-07-20T05:49:06.570Z,99.90
2018-07-20T05:51:34.393Z,99.90
2018-07-20T05:54:02.206Z,99.90
2018-07-20T05:56:30.207Z,99.90
2018-07-20T05:58:58.473Z,99.90
2018-07-20T06:01:26.264Z,99.90
2018-07-20T06:03:54.058Z,99.90
2018-07-20T06:06:21.949Z,99.90
2018-07-20T06:08:49.892Z,99.90
2018-07-20T06:11:17.927Z,99.90
2018-07-20T06:13:46.236Z,99.90
2018-07-20T06:18:41.876Z,99.90
2018-07-20T06:21:09.827Z,99.90
2018-07-20T06:23:38.316Z,99.90
2018-07-20T06:26:07.417Z,99.90
2018-07-20T06:28:35.278Z,99.90
2018-07-20T06:31:03.417Z,99.90
2018-07-20T06:33:31.563Z,99.90
2018-07-20T06:35:59.349Z,99.90
2018-07-20T06:38:27.505Z,99.90
2018-07-20T06:40:55.263Z,99.90
2018-07-20T06:43:23.080Z,99.90
2018-07-20T06:45:51.003Z,99.80
2018-07-20T06:48:18.834Z,99.00
2018-07-20T06:53:14.197Z,98.40
2018-07-20T06:55:42.097Z,97.70
2018-07-20T06:58:09.863Z,96.90
2018-07-20T07:00:37.809Z,96.70
2018-07-20T07:03:05.637Z,95.80
2018-07-20T07:05:33.415Z,94.50
2018-07-20T07:08:01.356Z,93.70
2018-07-20T07:10:29.435Z,93.00
2018-07-20T07:12:57.302Z,91.70
2018-07-20T07:15:26.849Z,90.90
2018-07-20T07:17:55.976Z,90.20
2018-07-20T07:20:28.824Z,88.20
2018-07-20T07:22:57.228Z,85.30
2018-07-20T07:25:27.245Z,84.00
2018-07-20T07:27:56.729Z,83.10
2018-07-20T07:30:26.529Z,81.20
2018-07-20T07:33:03.599Z,78.90
2018-07-20T07:35:34.251Z,74.70
2018-07-20T07:38:03.690Z,73.90
2018-07-20T07:43:25.878Z,72.00
2018-07-20T07:45:55.522Z,70.70
2018-07-20T07:48:29.328Z,68.80
2018-07-20T07:53:27.591Z,68.60
2018-07-20T07:58:49.563Z,65.60
2018-07-20T08:01:19.104Z,65.40
2018-07-20T08:03:48.448Z,65.60
2018-07-20T08:06:17.968Z,66.10
2018-07-20T08:08:47.778Z,66.20
2018-07-20T08:11:17.905Z,65.60
2018-07-20T08:13:47.714Z,65.40
2018-07-20T08:19:09.776Z,65.10
2018-07-20T08:21:39.227Z,62.40
2018-07-20T08:25:38.840Z,63.40
2018-07-20T08:28:08.168Z,61.60
2018-07-20T08:30:37.613Z,60.30
2018-07-20T08:33:07.287Z,59.80
2018-07-20T08:38:29.637Z,59.90
2018-07-20T08:40:59.939Z,60.60
2018-07-20T08:43:29.310Z,59.80
2018-07-20T08:45:59.078Z,58.50
2018-07-20T08:48:28.253Z,59.30
2018-07-20T08:50:57.572Z,58.30
2018-07-20T08:53:27.068Z,58.20
2018-07-20T08:55:56.920Z,57.00
2018-07-20T08:58:26.507Z,56.30
2018-07-20T09:00:55.996Z,56.00
2018-07-20T09:03:25.705Z,56.50
2018-07-20T09:05:55.498Z,55.80
2018-07-20T09:13:22.497Z,54.30
2018-07-20T09:15:52.122Z,52.60
2018-07-20T09:18:21.466Z,52.80
2018-07-20T09:20:51.471Z,53.30
2018-07-20T09:23:21.292Z,52.30
2018-07-20T09:25:51.232Z,51.50
2018-07-20T09:28:23.129Z,51.80
2018-07-20T09:30:52.807Z,51.80
2018-07-20T09:33:22.391Z,51.50
2018-07-20T09:35:54.018Z,51.50
2018-07-20T09:43:21.842Z,50.30
2018-07-20T09:45:54.457Z,50.70
2018-07-20T09:50:56.531Z,51.20
2018-07-20T09:58:24.820Z,51.10
2018-07-20T10:00:55.755Z,51.70
2018-07-20T10:03:26.148Z,50.70
2018-07-20T10:05:55.547Z,50.40
2018-07-20T10:08:25.733Z,49.90
2018-07-20T10:10:55.682Z,49.40
2018-07-20T10:13:24.926Z,47.60
2018-07-20T10:15:54.386Z,47.30
2018-07-20T10:18:23.509Z,48.30
2018-07-20T10:23:52.165Z,48.20
2018-07-20T10:26:21.335Z,48.10
2018-07-20T10:28:52.086Z,47.70
2018-07-20T10:31:21.687Z,47.40
2018-07-20T10:33:52.637Z,46.60
2018-07-20T10:36:22.369Z,46.50
2018-07-20T10:47:25.698Z,46.20
2018-07-20T10:49:55.445Z,44.10
2018-07-20T10:58:12.071Z,46.70
2018-07-20T11:06:26.764Z,45.80
2018-07-20T11:08:56.357Z,45.70
2018-07-20T11:11:26.075Z,46.10
2018-07-20T11:13:55.793Z,46.40
2018-07-20T11:16:25.944Z,47.10
2018-07-20T11:19:01.156Z,48.60
2018-07-20T11:21:30.822Z,49.30
2018-07-20T11:26:53.380Z,49.40
2018-07-20T11:29:23.414Z,46.50
2018-07-20T11:31:53.134Z,45.50
2018-07-20T11:34:28.656Z,45.10
2018-07-20T11:36:58.412Z,45.50
2018-07-20T11:42:15.077Z,44.00
2018-07-20T11:44:45.019Z,43.20
2018-07-20T11:47:14.686Z,44.10
2018-07-20T11:49:45.313Z,44.80
2018-07-20T11:52:15.183Z,44.80
2018-07-20T11:54:44.949Z,44.10
2018-07-20T11:57:15.222Z,44.00
2018-07-20T11:59:46.187Z,43.60
2018-07-20T12:02:16.921Z,44.20
2018-07-20T12:04:47.150Z,43.20
2018-07-20T12:07:16.898Z,42.90
2018-07-20T12:09:47.261Z,43.20
2018-07-20T12:12:17.399Z,40.90
2018-07-20T12:14:48.095Z,40.30
2018-07-20T12:20:10.830Z,41.90
2018-07-20T12:22:41.111Z,41.90
2018-07-20T12:25:10.855Z,40.70
2018-07-20T12:27:40.809Z,40.30
2018-07-20T12:33:22.584Z,40.50
2018-07-20T12:38:47.937Z,41.60
2018-07-20T12:41:20.608Z,41.50
2018-07-20T12:44:02.969Z,42.30
2018-07-20T12:49:28.691Z,42.20
2018-07-20T12:52:05.732Z,42.30
2018-07-20T13:02:58.445Z,40.90
2018-07-20T13:05:34.359Z,41.60
2018-07-20T13:08:07.788Z,42.00
2018-07-20T13:13:24.861Z,41.70
2018-07-20T13:15:55.053Z,41.50
2018-07-20T13:18:24.776Z,40.80
2018-07-20T13:20:54.121Z,40.90
2018-07-20T13:23:24.547Z,40.50
2018-07-20T13:28:47.065Z,40.40
2018-07-20T13:31:21.489Z,40.50
2018-07-20T13:33:51.165Z,40.90
2018-07-20T13:36:20.753Z,39.80
2018-07-20T13:38:50.773Z,39.70
2018-07-20T13:47:07.351Z,40.70
2018-07-20T13:49:37.268Z,40.00
2018-07-20T13:52:07.186Z,40.60
2018-07-20T13:54:42.927Z,41.10
2018-07-20T13:57:12.630Z,41.30
2018-07-20T13:59:42.566Z,40.50
2018-07-20T14:02:12.131Z,40.20
2018-07-20T14:07:33.735Z,40.40
2018-07-20T14:10:03.994Z,40.60
2018-07-20T14:12:33.780Z,40.10
2018-07-20T14:15:03.904Z,40.60
2018-07-20T14:17:33.898Z,40.60
2018-07-20T14:20:03.534Z,40.50
2018-07-20T14:22:43.816Z,40.50
2018-07-20T14:25:14.049Z,40.10
2018-07-20T14:27:42.865Z,40.90
2018-07-20T14:30:18.169Z,41.80
2018-07-20T14:35:40.117Z,41.00
2018-07-20T14:38:14.518Z,41.30
2018-07-20T14:40:44.620Z,41.30
2018-07-20T14:43:13.987Z,41.20
2018-07-20T14:45:43.535Z,41.00
2018-07-20T14:48:28.620Z,41.40
2018-07-20T14:50:58.508Z,41.40
2018-07-20T14:53:27.817Z,41.10
2018-07-20T14:55:57.169Z,40.50
2018-07-20T14:58:26.996Z,40.20
2018-07-20T15:00:56.724Z,40.20
2018-07-20T15:03:26.154Z,40.60
2018-07-20T15:05:55.347Z,40.70
2018-07-20T15:08:25.372Z,41.20
2018-07-20T15:10:54.605Z,40.70
2018-07-20T15:13:24.938Z,40.10
2018-07-20T15:15:54.874Z,40.70
2018-07-20T15:18:24.622Z,41.00
2018-07-20T15:20:54.047Z,40.50
2018-07-20T15:28:44.371Z,40.60
2018-07-20T15:31:13.595Z,40.50
2018-07-20T15:33:43.446Z,40.90
2018-07-20T15:36:12.850Z,40.60
2018-07-20T15:38:48.413Z,40.80
2018-07-20T15:41:18.267Z,41.10
2018-07-20T15:43:47.833Z,41.20
2018-07-20T15:46:17.379Z,41.30
2018-07-20T15:48:46.615Z,41.50
2018-07-20T15:51:20.227Z,41.80
2018-07-20T15:56:20.083Z,42.30
2018-07-20T15:58:49.917Z,42.60
2018-07-20T16:01:24.303Z,42.50
2018-07-20T16:03:53.857Z,42.80
2018-07-20T16:06:23.455Z,42.90
2018-07-20T16:08:53.089Z,43.20
2018-07-20T16:11:22.671Z,43.30
2018-07-20T16:13:51.694Z,42.90
2018-07-20T16:16:21.159Z,42.60
2018-07-20T16:18:50.864Z,43.00
2018-07-20T16:21:20.692Z,43.40
2018-07-20T16:23:50.654Z,43.60
2018-07-20T16:28:49.576Z,44.40
2018-07-20T16:33:48.357Z,43.90
2018-07-20T16:36:18.201Z,44.10
2018-07-20T16:41:17.044Z,44.50
2018-07-20T16:43:46.691Z,44.40
2018-07-20T16:46:16.723Z,44.60
2018-07-20T16:48:46.337Z,44.80
2018-07-20T16:51:16.561Z,44.80
2018-07-20T16:53:46.564Z,45.00
2018-07-20T16:56:16.294Z,45.30
2018-07-20T16:58:45.542Z,45.30
2018-07-20T17:01:15.318Z,45.40
2018-07-20T17:03:45.400Z,45.20
2018-07-20T17:06:14.595Z,45.20
2018-07-20T17:08:44.201Z,45.20
2018-07-20T17:11:14.152Z,45.60
2018-07-20T17:16:36.329Z,45.70
2018-07-20T17:19:05.615Z,45.80
2018-07-20T17:21:35.629Z,45.80
2018-07-20T17:24:05.189Z,46.00
2018-07-20T17:26:34.982Z,46.00
2018-07-20T17:29:04.843Z,46.00
2018-07-20T17:31:34.492Z,46.30
2018-07-20T17:34:04.051Z,46.20
2018-07-20T17:36:33.747Z,46.20
2018-07-20T17:39:11.669Z,46.30
2018-07-20T17:44:33.800Z,46.70
2018-07-20T17:47:03.354Z,46.80
2018-07-20T17:49:33.091Z,46.90
2018-07-20T17:54:32.887Z,47.40
2018-07-20T17:57:03.265Z,47.40
2018-07-20T17:59:33.102Z,47.40
2018-07-20T18:02:02.832Z,47.40
2018-07-20T18:04:32.814Z,47.60
2018-07-20T18:07:02.317Z,47.60
2018-07-20T18:12:01.274Z,47.70
2018-07-20T18:14:30.609Z,48.00
2018-07-20T18:17:00.182Z,48.00
2018-07-20T18:19:31.131Z,48.20
2018-07-20T18:22:00.951Z,48.30
2018-07-20T18:24:30.124Z,48.50
2018-07-20T18:27:01.222Z,48.70
2018-07-20T18:29:30.561Z,48.90
2018-07-20T18:32:00.754Z,49.00
2018-07-20T18:34:30.836Z,49.20
2018-07-20T18:37:00.129Z,49.20
2018-07-20T18:39:29.977Z,49.40
2018-07-20T18:41:59.568Z,49.50
2018-07-20T18:44:29.493Z,49.60
2018-07-20T18:46:59.175Z,49.70
2018-07-20T18:49:28.972Z,49.80
2018-07-20T18:51:58.601Z,50.10
2018-07-20T18:54:28.423Z,50.40
2018-07-20T18:56:58.287Z,50.40
2018-07-20T18:59:27.292Z,50.30
2018-07-20T19:01:56.927Z,50.30
2018-07-20T19:04:26.136Z,50.40
2018-07-20T19:06:55.395Z,50.50
2018-07-20T19:09:25.240Z,50.50
2018-07-20T19:11:54.931Z,50.70
2018-07-20T19:14:24.238Z,50.90
2018-07-20T19:16:54.288Z,51.00
2018-07-20T19:19:24.128Z,51.20
2018-07-20T19:21:53.984Z,51.40
2018-07-20T19:24:23.518Z,51.60
2018-07-20T19:26:53.068Z,52.00
2018-07-20T19:29:23.220Z,52.30
2018-07-20T19:31:52.699Z,52.70
2018-07-20T19:34:22.339Z,52.80
2018-07-20T19:36:51.831Z,53.10
2018-07-20T19:39:21.827Z,53.30
2018-07-20T19:41:51.074Z,53.60
2018-07-20T19:44:20.627Z,54.10
2018-07-20T19:46:50.334Z,54.80
2018-07-20T19:49:20.392Z,54.60
2018-07-20T19:51:50.649Z,54.70
2018-07-20T19:54:20.610Z,55.00
2018-07-20T19:56:49.557Z,55.00
2018-07-20T19:59:20.449Z,54.50
2018-07-20T20:01:50.683Z,55.10
2018-07-20T20:04:20.908Z,55.10
2018-07-20T20:06:51.349Z,55.30
2018-07-20T20:09:22.118Z,55.40
2018-07-20T20:11:52.103Z,55.70
2018-07-20T20:14:22.415Z,56.10
2018-07-20T20:16:52.047Z,56.30
2018-07-20T20:19:22.163Z,56.40
2018-07-20T20:21:52.095Z,56.50
2018-07-20T20:24:21.977Z,56.50
2018-07-20T20:26:51.754Z,56.50
2018-07-20T20:29:21.501Z,56.70
2018-07-20T20:31:51.735Z,56.80
2018-07-20T20:34:21.663Z,57.30
2018-07-20T20:39:37.563Z,57.70
2018-07-20T20:42:08.233Z,57.70
2018-07-20T20:44:38.880Z,57.80
2018-07-20T20:47:08.880Z,58.30
2018-07-20T20:49:38.624Z,58.40
2018-07-20T20:52:08.852Z,58.60
2018-07-20T20:54:41.085Z,58.60
2018-07-20T20:57:11.468Z,59.10
2018-07-20T20:59:40.319Z,58.90
2018-07-20T21:02:08.833Z,59.10
2018-07-20T21:04:37.633Z,59.30
2018-07-20T21:07:05.907Z,59.40
2018-07-20T21:09:34.579Z,59.50
2018-07-20T21:12:03.068Z,59.70
2018-07-20T21:14:31.925Z,59.70
2018-07-20T21:17:00.543Z,59.80
2018-07-20T21:19:29.027Z,60.30
2018-07-20T21:21:57.204Z,60.20
2018-07-20T21:24:25.427Z,60.50
2018-07-20T21:26:53.936Z,60.70
2018-07-20T21:29:22.701Z,60.60
2018-07-20T21:31:50.934Z,61.20
2018-07-20T21:34:19.593Z,61.10
2018-07-20T21:36:47.899Z,61.60
2018-07-20T21:39:16.309Z,61.40
2018-07-20T21:41:44.997Z,61.70
2018-07-20T21:44:13.737Z,62.00
2018-07-20T21:46:42.027Z,62.10
2018-07-20T21:49:09.965Z,62.30
2018-07-20T21:51:37.726Z,62.40
2018-07-20T21:54:05.397Z,62.30
2018-07-20T21:56:33.314Z,62.60
2018-07-20T22:01:28.730Z,63.20
2018-07-20T22:03:56.592Z,63.30
2018-07-20T22:06:24.467Z,63.50
2018-07-20T22:08:52.286Z,63.80
2018-07-20T22:11:20.161Z,63.80
2018-07-20T22:13:47.995Z,64.10
2018-07-20T22:16:15.947Z,64.30
2018-07-20T22:18:43.848Z,64.30
2018-07-20T22:21:11.739Z,64.60
2018-07-20T22:23:39.725Z,64.80
2018-07-20T22:26:07.590Z,65.00
2018-07-20T22:28:35.491Z,65.10
2018-07-20T22:31:03.365Z,65.90
2018-07-20T22:33:31.255Z,65.80
2018-07-20T22:35:59.055Z,66.20
2018-07-20T22:38:27.076Z,66.30
2018-07-20T22:40:55.010Z,66.50
2018-07-20T22:43:23.105Z,66.70
2018-07-20T22:45:52.132Z,66.60
2018-07-20T22:48:19.959Z,66.90
2018-07-20T22:50:47.900Z,67.00
2018-07-20T22:53:15.927Z,67.00
2018-07-20T22:55:44.656Z,66.90
2018-07-20T22:58:12.483Z,67.10
2018-07-20T23:00:40.307Z,66.90
2018-07-20T23:03:08.057Z,66.90
2018-07-20T23:05:36.269Z,67.00
2018-07-20T23:08:04.496Z,67.10
2018-07-20T23:10:32.442Z,67.30
2018-07-20T23:13:00.229Z,67.30
2018-07-20T23:15:28.102Z,67.40
2018-07-20T23:17:56.108Z,67.50
2018-07-20T23:20:24.005Z,67.70
2018-07-20T23:22:51.935Z,68.80
2018-07-20T23:25:19.920Z,68.30
2018-07-20T23:27:47.851Z,68.30
2018-07-20T23:30:15.688Z,68.40
2018-07-20T23:32:43.468Z,68.50
2018-07-20T23:35:11.226Z,68.70
2018-07-20T23:37:39.056Z,68.90
2018-07-20T23:40:06.925Z,69.00
2018-07-20T23:42:35.056Z,69.30
2018-07-20T23:45:03.099Z,69.70
2018-07-20T23:47:31.085Z,70.00
2018-07-20T23:49:59.213Z,70.40
2018-07-20T23:52:27.157Z,70.50
2018-07-20T23:54:55.054Z,71.00
2018-07-20T23:57:23.076Z,71.20
2018-07-20T23:59:51.046Z,71.50
